Time;durP1;ratioP1;P1;durP2;ratioP2;P2;SDS_P1;SDS_P2;PMS_P1;PMS_P2;Temp;Humidity;BMP_temperature;BMP_pressure;BME280_temperature;BME280_humidity;BME280_pressure;Samples;Min_cycle;Max_cycle;Signal;HPM_P1;HPM_P2
2022/07/03 00:01:21;;;;;;;2.35;1.40;;;20.30;60.90;;;;;;5092878;28;20088;-39
2022/07/03 00:03:47;;;;;;;1.38;1.13;;;20.30;61.00;;;;;;5092347;28;20463;-38
2022/07/03 00:06:13;;;;;;;1.90;1.40;;;20.30;61.10;;;;;;5092417;28;20024;-39
2022/07/03 00:08:38;;;;;;;1.90;1.30;;;20.20;61.20;;;;;;5092566;28;20383;-39
2022/07/03 00:11:08;;;;;;;2.30;1.20;;;20.20;61.30;;;;;;5092324;28;20020;-37
2022/07/03 00:13:33;;;;;;;2.33;1.30;;;20.10;61.30;;;;;;5093253;28;20016;-38
2022/07/03 00:15:59;;;;;;;2.97;1.33;;;20.10;61.30;;;;;;5095991;28;20024;-37
2022/07/03 00:18:25;;;;;;;1.10;1.00;;;20.10;62.00;;;;;;5096262;28;20051;-38
2022/07/03 00:20:59;;;;;;;1.15;0.98;;;20.10;61.50;;;;;;5095948;28;20078;-39
2022/07/03 00:23:27;;;;;;;1.77;1.10;;;20.00;61.50;;;;;;5095798;28;20100;-39
2022/07/03 00:25:53;;;;;;;1.88;1.00;;;20.00;61.60;;;;;;5094583;28;20024;-39
2022/07/03 00:28:19;;;;;;;1.85;0.90;;;19.90;61.50;;;;;;5095862;28;20099;-39
2022/07/03 00:30:47;;;;;;;1.95;1.05;;;19.90;61.50;;;;;;5096026;28;20071;-38
2022/07/03 00:33:14;;;;;;;1.20;0.93;;;19.90;61.50;;;;;;5095652;28;20024;-37
2022/07/03 00:35:42;;;;;;;1.10;1.00;;;19.80;61.50;;;;;;5095648;28;20020;-37
2022/07/03 00:38:08;;;;;;;1.08;0.90;;;19.80;61.70;;;;;;5096462;28;20026;-38
2022/07/03 00:40:34;;;;;;;1.75;0.82;;;19.80;61.70;;;;;;5095744;28;20044;-39
2022/07/03 00:43:01;;;;;;;1.33;1.00;;;19.80;61.80;;;;;;5095881;28;20012;-38
2022/07/03 00:45:27;;;;;;;2.08;1.00;;;19.70;61.90;;;;;;5095835;28;20127;-37
2022/07/03 00:47:54;;;;;;;4.00;0.98;;;19.70;62.00;;;;;;5095414;28;20161;-39
2022/07/03 00:50:25;;;;;;;1.40;0.90;;;19.60;62.10;;;;;;5095717;28;20443;-38
2022/07/03 00:52:54;;;;;;;2.03;1.00;;;19.60;62.60;;;;;;5095920;28;20063;-38
2022/07/03 00:55:22;;;;;;;2.63;1.00;;;19.60;62.40;;;;;;5095453;28;20024;-38
2022/07/03 00:57:48;;;;;;;3.38;0.88;;;19.50;62.40;;;;;;5095226;28;20020;-38
2022/07/03 01:00:15;;;;;;;2.33;0.88;;;19.50;62.60;;;;;;5095146;28;20024;-38
2022/07/03 01:02:44;;;;;;;1.55;1.00;;;19.40;62.60;;;;;;5095133;28;20028;-39
2022/07/03 01:05:10;;;;;;;1.15;0.60;;;19.40;62.60;;;;;;5095562;28;20028;-41
2022/07/03 01:08:07;;;;;;;1.20;1.00;;;19.40;62.60;;;;;;5094953;28;20047;-39
2022/07/03 01:10:53;;;;;;;1.17;1.00;;;19.40;62.70;;;;;;5095191;28;20123;-39
2022/07/03 01:13:37;;;;;;;2.03;1.10;;;19.30;62.70;;;;;;5094873;28;20035;-39
2022/07/03 01:16:14;;;;;;;1.55;0.93;;;19.30;62.80;;;;;;5094920;28;20024;-38
2022/07/03 01:19:19;;;;;;;1.02;0.93;;;19.20;62.90;;;;;;5095153;28;20019;-39
2022/07/03 01:22:08;;;;;;;1.33;0.85;;;19.10;63.10;;;;;;5094914;28;20031;-39
2022/07/03 01:24:47;;;;;;;1.33;1.00;;;19.00;63.20;;;;;;5094467;28;20020;-40
2022/07/03 01:27:35;;;;;;;1.90;0.90;;;19.00;63.50;;;;;;5094415;28;20107;-39
2022/07/03 01:30:11;;;;;;;0.68;0.65;;;18.90;63.70;;;;;;5090769;28;20465;-38
2022/07/03 01:32:46;;;;;;;1.40;0.90;;;18.90;63.70;;;;;;5094435;28;20096;-40
2022/07/03 01:35:14;;;;;;;1.58;0.98;;;18.90;63.90;;;;;;5094490;28;20130;-40
2022/07/03 01:37:40;;;;;;;3.03;1.30;;;18.90;63.90;;;;;;5094482;28;20468;-40
2022/07/03 01:40:07;;;;;;;1.13;0.95;;;18.90;64.00;;;;;;5094319;28;20023;-39
2022/07/03 01:42:38;;;;;;;1.20;1.10;;;18.80;64.30;;;;;;5094659;28;20395;-38
2022/07/03 01:45:07;;;;;;;2.50;1.20;;;18.80;64.50;;;;;;5094523;28;20035;-38
2022/07/03 01:47:34;;;;;;;2.45;1.10;;;18.80;64.70;;;;;;5093554;28;20023;-39
2022/07/03 01:50:01;;;;;;;1.33;1.10;;;18.70;64.70;;;;;;5094128;28;20065;-38
2022/07/03 01:52:30;;;;;;;1.30;1.20;;;18.70;64.80;;;;;;5094152;28;20029;-39
2022/07/03 01:54:59;;;;;;;1.77;1.45;;;18.70;65.00;;;;;;5094069;28;20032;-38
2022/07/03 01:57:52;;;;;;;3.22;1.75;;;18.70;65.20;;;;;;5094246;28;20024;-39
2022/07/03 02:00:20;;;;;;;2.83;2.10;;;18.60;65.30;;;;;;5093616;28;20514;-38
2022/07/03 02:02:55;;;;;;;1.98;1.80;;;18.60;65.60;;;;;;5093909;28;20024;-38
2022/07/03 02:05:43;;;;;;;4.00;1.60;;;18.50;65.60;;;;;;5093855;28;20031;-39
2022/07/03 02:08:40;;;;;;;3.25;1.70;;;18.50;65.80;;;;;;5093809;28;20020;-45
2022/07/03 02:11:17;;;;;;;2.65;1.50;;;18.50;65.80;;;;;;5093677;28;20024;-39
2022/07/03 02:14:11;;;;;;;2.85;1.40;;;18.50;65.90;;;;;;5093795;28;20055;-39
2022/07/03 02:16:49;;;;;;;;;;;18.50;66.00;;;;;;5094350;28;20031;-40
2022/07/03 02:19:15;;;;;;;3.45;1.73;;;18.40;65.90;;;;;;5093735;28;19908;-39
2022/07/03 02:21:50;;;;;;;3.85;1.67;;;18.40;66.10;;;;;;5093952;28;20024;-39
2022/07/03 02:24:25;;;;;;;3.10;1.70;;;18.30;66.60;;;;;;5093601;28;20024;-38
2022/07/03 02:26:56;;;;;;;2.90;1.85;;;18.30;67.30;;;;;;5093937;28;20037;-39
2022/07/03 02:29:34;;;;;;;1.63;1.45;;;18.20;66.80;;;;;;5092340;28;20043;-39
2022/07/03 02:32:03;;;;;;;2.55;1.75;;;18.20;66.90;;;;;;5093622;28;20074;-39
2022/07/03 02:34:31;;;;;;;2.22;1.67;;;18.20;67.10;;;;;;5093563;28;20028;-40
2022/07/03 02:37:05;;;;;;;3.17;1.50;;;18.20;67.10;;;;;;5093006;28;20032;-38
2022/07/03 02:39:44;;;;;;;2.88;1.65;;;18.20;67.20;;;;;;5092249;28;20544;-41
2022/07/03 02:42:25;;;;;;;3.20;1.70;;;18.20;67.20;;;;;;5093382;28;20127;-40
2022/07/03 02:44:53;;;;;;;2.35;1.60;;;18.20;67.20;;;;;;5093629;28;20115;-41
2022/07/03 02:47:19;;;;;;;2.25;1.85;;;18.20;67.20;;;;;;5092455;28;20027;-40
2022/07/03 02:49:58;;;;;;;2.63;1.60;;;18.20;67.20;;;;;;5093522;28;20479;-40
2022/07/03 02:52:40;;;;;;;1.60;1.50;;;18.20;67.30;;;;;;5093117;28;20080;-38
2022/07/03 02:55:31;;;;;;;2.75;1.70;;;18.10;67.40;;;;;;5091791;28;20062;-40
2022/07/03 02:58:10;;;;;;;3.10;1.80;;;18.10;67.50;;;;;;5093216;28;20034;-36
2022/07/03 03:00:39;;;;;;;4.40;2.00;;;18.10;67.60;;;;;;5092971;28;20027;-39
2022/07/03 03:03:04;;;;;;;2.15;1.98;;;18.00;67.80;;;;;;5091740;28;20033;-47
2022/07/03 03:05:46;;;;;;;3.28;1.88;;;18.00;67.90;;;;;;5091565;28;20145;-39
2022/07/03 03:08:15;;;;;;;2.78;1.70;;;17.90;68.00;;;;;;5091639;28;20015;-44
2022/07/03 03:10:43;;;;;;;6.32;1.75;;;17.90;67.90;;;;;;5092927;28;20024;-39
2022/07/03 03:13:12;;;;;;;2.67;1.40;;;17.90;67.80;;;;;;5093087;28;20020;-38
2022/07/03 03:15:43;;;;;;;1.70;1.40;;;17.90;67.70;;;;;;5093007;28;20104;-39
2022/07/03 03:18:12;;;;;;;1.90;1.42;;;18.00;67.50;;;;;;5092771;28;20047;-38
2022/07/03 03:20:41;;;;;;;3.92;1.50;;;18.00;67.30;;;;;;5092759;28;20016;-38
2022/07/03 03:23:18;;;;;;;2.88;1.40;;;18.00;67.10;;;;;;5092524;28;20103;-39
2022/07/03 03:25:45;;;;;;;2.13;1.45;;;18.00;67.10;;;;;;5091507;28;20518;-40
2022/07/03 03:28:12;;;;;;;4.10;1.27;;;18.00;66.90;;;;;;5092681;28;20107;-38
2022/07/03 03:30:38;;;;;;;2.50;1.15;;;18.10;66.90;;;;;;5093006;28;20016;-39
2022/07/03 03:33:08;;;;;;;2.55;1.27;;;18.10;66.70;;;;;;5092820;28;20472;-38
2022/07/03 03:35:38;;;;;;;2.60;1.20;;;18.10;66.60;;;;;;5092837;28;20046;-38
2022/07/03 03:38:04;;;;;;;3.10;1.38;;;18.10;66.40;;;;;;5092538;28;20030;-38
2022/07/03 03:40:32;;;;;;;2.05;1.42;;;18.10;66.30;;;;;;5092500;28;20036;-38
2022/07/03 03:42:58;;;;;;;1.20;1.10;;;18.10;66.30;;;;;;5093580;28;20021;-38
2022/07/03 03:45:23;;;;;;;2.80;1.30;;;18.20;66.20;;;;;;5091760;28;20104;-39
2022/07/03 03:47:49;;;;;;;2.28;1.42;;;18.30;66.10;;;;;;5093065;28;20428;-39
2022/07/03 03:50:15;;;;;;;2.28;1.33;;;18.30;66.10;;;;;;5096565;28;20475;-38
2022/07/03 03:52:42;;;;;;;2.78;1.10;;;18.30;66.00;;;;;;5096430;28;20016;-39
2022/07/03 03:55:09;;;;;;;1.52;1.20;;;18.30;65.90;;;;;;5096340;28;20548;-38
2022/07/03 03:57:34;;;;;;;2.67;1.20;;;18.40;65.90;;;;;;5096641;28;20399;-38
2022/07/03 04:00:00;;;;;;;3.05;1.83;;;18.40;65.90;;;;;;5096171;28;20123;-37
2022/07/03 04:02:26;;;;;;;2.78;1.48;;;18.40;65.90;;;;;;5094928;28;20162;-39
2022/07/03 04:04:52;;;;;;;3.53;1.40;;;18.50;66.00;;;;;;5096093;28;20080;-39
2022/07/03 04:07:17;;;;;;;2.10;1.30;;;18.50;66.00;;;;;;5096076;28;20460;-39
2022/07/03 04:09:44;;;;;;;1.70;1.27;;;18.50;66.00;;;;;;5096132;28;20023;-39
2022/07/03 04:12:10;;;;;;;1.63;1.30;;;18.50;65.90;;;;;;5096292;28;20365;-38
2022/07/03 04:14:36;;;;;;;1.58;1.30;;;18.50;65.90;;;;;;5096179;28;20035;-39
2022/07/03 04:17:01;;;;;;;1.50;1.20;;;18.50;65.90;;;;;;5096028;28;20103;-39
2022/07/03 04:19:27;;;;;;;2.22;1.20;;;18.60;65.90;;;;;;5096128;28;20568;-38
2022/07/03 04:21:53;;;;;;;1.85;1.38;;;18.60;65.90;;;;;;5095935;28;20455;-40
2022/07/03 04:24:18;;;;;;;6.45;1.75;;;18.60;65.90;;;;;;5096121;28;20039;-39
2022/07/03 04:26:44;;;;;;;3.05;1.30;;;18.60;65.90;;;;;;5094575;28;20070;-40
2022/07/03 04:29:10;;;;;;;1.60;1.25;;;18.60;65.90;;;;;;5096014;28;20020;-39
2022/07/03 04:31:35;;;;;;;1.63;1.30;;;18.60;66.00;;;;;;5095759;28;20032;-39
2022/07/03 04:34:01;;;;;;;2.45;1.40;;;18.50;66.00;;;;;;5095538;28;20020;-39
2022/07/03 04:36:28;;;;;;;1.98;1.40;;;18.50;66.10;;;;;;5095660;28;20092;-40
2022/07/03 04:38:54;;;;;;;2.97;1.60;;;18.50;66.30;;;;;;5095832;28;20024;-40
2022/07/03 04:41:19;;;;;;;3.58;2.03;;;18.50;66.40;;;;;;5095362;28;20058;-39
2022/07/03 04:43:45;;;;;;;2.08;1.30;;;18.40;66.50;;;;;;5095363;28;20044;-40
2022/07/03 04:46:10;;;;;;;2.15;1.52;;;18.40;66.50;;;;;;5095422;28;20035;-40
2022/07/03 04:48:36;;;;;;;2.33;1.15;;;18.40;66.60;;;;;;5095648;28;20016;-40
2022/07/03 04:51:02;;;;;;;2.53;1.25;;;18.40;66.60;;;;;;5095281;28;20020;-38
2022/07/03 04:53:27;;;;;;;1.20;1.10;;;18.40;66.70;;;;;;5095580;28;20027;-39
2022/07/03 04:55:53;;;;;;;2.78;1.30;;;18.40;66.60;;;;;;5095234;28;20028;-40
2022/07/03 04:58:18;;;;;;;1.88;1.30;;;18.40;66.60;;;;;;5095540;28;20028;-40
2022/07/03 05:00:45;;;;;;;1.73;1.30;;;18.40;66.60;;;;;;5094630;28;20031;-40
2022/07/03 05:03:11;;;;;;;3.03;1.50;;;18.40;66.50;;;;;;5095109;28;20012;-39
2022/07/03 05:05:37;;;;;;;2.72;1.60;;;18.50;66.50;;;;;;5095286;28;20383;-40
2022/07/03 05:08:03;;;;;;;2.63;1.40;;;18.50;66.40;;;;;;5094983;28;20053;-39
2022/07/03 05:10:28;;;;;;;2.33;1.48;;;18.60;66.40;;;;;;5095271;28;20024;-39
2022/07/03 05:12:54;;;;;;;2.20;1.48;;;18.70;66.30;;;;;;5095229;28;20235;-39
2022/07/03 05:15:20;;;;;;;2.60;1.60;;;18.80;66.10;;;;;;5093615;28;20028;-38
2022/07/03 05:17:46;;;;;;;3.97;1.75;;;18.90;66.10;;;;;;5095179;28;20030;-39
2022/07/03 05:20:24;;;;;;;2.78;1.42;;;19.00;66.00;;;;;;5094787;28;20081;-39
2022/07/03 05:22:54;;;;;;;2.58;1.50;;;19.10;65.90;;;;;;5095040;28;20052;-40
2022/07/03 05:25:20;;;;;;;2.40;1.40;;;19.20;65.80;;;;;;5094645;28;20028;-39
2022/07/03 05:27:46;;;;;;;2.45;1.40;;;19.30;65.90;;;;;;5094682;28;20089;-39
2022/07/03 05:30:13;;;;;;;3.53;1.75;;;19.30;65.90;;;;;;5094620;28;20023;-39
2022/07/03 05:32:39;;;;;;;2.58;1.60;;;19.30;65.90;;;;;;5094529;28;20073;-39
2022/07/03 05:35:05;;;;;;;1.65;1.40;;;19.30;66.00;;;;;;5094729;28;20020;-39
2022/07/03 05:37:31;;;;;;;2.08;1.40;;;19.40;66.00;;;;;;5094832;28;20457;-40
2022/07/03 05:39:56;;;;;;;3.85;1.40;;;19.40;66.00;;;;;;5094543;28;20031;-40
2022/07/03 05:42:22;;;;;;;1.25;1.10;;;19.40;66.00;;;;;;5094543;28;20070;-39
2022/07/03 05:44:48;;;;;;;3.20;1.77;;;19.50;66.00;;;;;;5094352;28;20024;-40
2022/07/03 05:47:13;;;;;;;1.77;1.25;;;19.50;66.00;;;;;;5094539;28;20065;-39
2022/07/03 05:49:39;;;;;;;3.72;1.45;;;19.50;66.10;;;;;;5094562;28;20016;-39
2022/07/03 05:52:05;;;;;;;1.42;1.33;;;19.50;66.20;;;;;;5094385;28;20080;-39
2022/07/03 05:54:30;;;;;;;4.47;1.67;;;19.50;66.30;;;;;;5094137;28;20476;-40
2022/07/03 05:56:56;;;;;;;1.98;1.48;;;19.40;66.40;;;;;;5094010;28;20026;-40
2022/07/03 05:59:22;;;;;;;2.10;1.80;;;19.40;66.60;;;;;;5094043;28;20428;-38
2022/07/03 06:01:47;;;;;;;2.60;2.10;;;19.40;66.80;;;;;;5094283;28;20103;-39
2022/07/03 06:04:13;;;;;;;3.05;1.80;;;19.30;67.00;;;;;;5093837;28;20020;-40
2022/07/03 06:06:38;;;;;;;3.83;1.85;;;19.20;67.10;;;;;;5094012;28;20108;-40
2022/07/03 06:09:04;;;;;;;2.67;1.77;;;19.30;67.30;;;;;;5093874;28;20646;-39
2022/07/03 06:11:30;;;;;;;4.18;1.95;;;19.30;67.20;;;;;;5093491;28;20047;-39
2022/07/03 06:13:55;;;;;;;1.65;1.42;;;19.30;67.30;;;;;;5093827;28;20028;-39
2022/07/03 06:16:21;;;;;;;1.80;1.70;;;19.30;67.20;;;;;;5093965;28;20024;-39
2022/07/03 06:18:46;;;;;;;2.17;1.67;;;19.30;67.10;;;;;;5093912;28;20020;-39
2022/07/03 06:21:12;;;;;;;2.30;1.70;;;19.40;67.10;;;;;;5093583;28;20027;-38
2022/07/03 06:23:37;;;;;;;2.65;1.52;;;19.50;67.10;;;;;;5093635;28;20107;-39
2022/07/03 06:26:03;;;;;;;2.03;1.40;;;19.50;67.00;;;;;;5094246;28;20467;-40
2022/07/03 06:28:28;;;;;;;1.45;1.13;;;19.50;66.90;;;;;;5093691;28;20188;-39
2022/07/03 06:30:54;;;;;;;2.90;1.45;;;19.60;66.80;;;;;;5093465;28;20147;-39
2022/07/03 06:33:20;;;;;;;2.25;1.23;;;19.50;66.90;;;;;;5093589;28;20073;-39
2022/07/03 06:35:45;;;;;;;3.20;1.30;;;19.50;67.00;;;;;;5093634;28;20538;-39
2022/07/03 06:38:11;;;;;;;2.45;1.38;;;19.50;67.00;;;;;;5093430;28;20049;-39
2022/07/03 06:40:36;;;;;;;3.53;1.23;;;19.50;67.00;;;;;;5093080;28;20080;-39
2022/07/03 06:43:02;;;;;;;2.88;1.45;;;19.50;67.10;;;;;;5093220;28;20457;-38
2022/07/03 06:45:28;;;;;;;2.13;1.30;;;19.50;67.30;;;;;;5093522;28;20028;-38
2022/07/03 06:47:54;;;;;;;1.48;1.20;;;19.60;67.40;;;;;;5093328;28;20479;-38
2022/07/03 06:50:19;;;;;;;2.72;1.20;;;19.50;67.40;;;;;;5093125;28;20027;-39
2022/07/03 06:52:45;;;;;;;1.83;0.95;;;19.60;67.40;;;;;;5093344;28;20028;-38
2022/07/03 06:55:10;;;;;;;1.63;0.80;;;19.70;67.40;;;;;;5093406;28;20060;-38
2022/07/03 06:57:36;;;;;;;1.67;1.00;;;19.70;67.20;;;;;;5093080;28;20383;-39
2022/07/03 07:00:03;;;;;;;1.58;0.80;;;19.70;67.00;;;;;;5093003;28;20506;-39
2022/07/03 07:02:28;;;;;;;2.22;0.70;;;19.70;66.80;;;;;;5093263;28;20028;-43
2022/07/03 07:04:54;;;;;;;2.83;0.75;;;19.80;66.60;;;;;;5093236;28;20498;-39
2022/07/03 07:07:20;;;;;;;2.30;1.00;;;19.80;66.40;;;;;;5093183;28;20480;-39
2022/07/03 07:09:45;;;;;;;1.27;0.57;;;19.90;66.30;;;;;;5093339;28;20035;-39
2022/07/03 07:12:11;;;;;;;1.38;0.70;;;19.90;66.10;;;;;;5092949;28;20093;-39
2022/07/03 07:14:36;;;;;;;2.17;0.60;;;20.00;65.90;;;;;;5092893;28;20066;-39
2022/07/03 07:17:02;;;;;;;2.15;0.75;;;20.00;65.60;;;;;;5093039;28;20028;-37
2022/07/03 07:19:28;;;;;;;1.70;0.77;;;20.10;65.40;;;;;;5093208;28;20024;-38
2022/07/03 07:21:53;;;;;;;1.42;0.57;;;20.10;65.10;;;;;;5092914;28;20055;-40
2022/07/03 07:24:19;;;;;;;1.02;0.70;;;20.10;64.90;;;;;;5095255;28;20046;-38
2022/07/03 07:26:44;;;;;;;1.95;0.77;;;20.10;64.70;;;;;;5097026;28;20456;-39
2022/07/03 07:29:10;;;;;;;2.58;0.80;;;20.20;64.70;;;;;;5097287;28;20024;-38
2022/07/03 07:31:36;;;;;;;3.10;0.90;;;20.20;64.80;;;;;;5096857;28;20016;-39
2022/07/03 07:34:04;;;;;;;3.53;1.00;;;20.30;64.90;;;;;;5096983;28;20021;-38
2022/07/03 07:36:30;;;;;;;1.30;0.70;;;20.30;65.10;;;;;;5097230;28;20089;-40
2022/07/03 07:38:55;;;;;;;2.20;0.93;;;20.30;65.10;;;;;;5096821;28;20472;-39
2022/07/03 07:41:21;;;;;;;2.55;0.93;;;20.40;65.10;;;;;;5096341;28;20385;-36
2022/07/03 07:43:46;;;;;;;2.35;0.95;;;20.40;65.20;;;;;;5096365;28;20073;-38
2022/07/03 07:46:12;;;;;;;1.48;0.90;;;20.50;65.40;;;;;;5096533;28;20138;-38
2022/07/03 07:48:38;;;;;;;2.00;0.90;;;20.50;65.40;;;;;;5096644;28;20020;-39
2022/07/03 07:51:04;;;;;;;2.58;0.70;;;20.50;65.50;;;;;;5095069;28;20110;-37
2022/07/03 07:53:30;;;;;;;1.83;0.88;;;20.50;65.40;;;;;;5096475;28;20059;-39
2022/07/03 07:55:55;;;;;;;1.15;0.80;;;20.50;65.40;;;;;;5096324;28;20020;-38
2022/07/03 07:58:22;;;;;;;3.10;1.00;;;20.50;65.40;;;;;;5096504;28;20035;-38
2022/07/03 08:06:17;;;;;;;2.10;0.82;;;20.60;64.60;;;;;;5096313;28;20507;-39
2022/07/03 08:08:43;;;;;;;2.15;0.95;;;20.60;64.40;;;;;;5096240;28;20027;-40
2022/07/03 08:11:08;;;;;;;1.17;0.73;;;20.60;63.90;;;;;;5096052;28;20020;-41
2022/07/03 08:13:34;;;;;;;1.15;0.70;;;20.60;63.30;;;;;;5096377;28;20364;-40
2022/07/03 08:16:00;;;;;;;3.75;0.88;;;20.60;63.00;;;;;;5096294;28;20077;-41
2022/07/03 08:18:25;;;;;;;1.90;0.82;;;20.70;63.00;;;;;;5096493;28;20043;-40
2022/07/03 08:20:51;;;;;;;1.88;0.80;;;20.70;63.00;;;;;;5096132;28;20024;-39
2022/07/03 08:23:16;;;;;;;1.73;0.90;;;20.70;63.20;;;;;;5096272;28;20052;-39
2022/07/03 08:25:42;;;;;;;1.30;0.80;;;20.70;63.30;;;;;;5095200;28;20027;-39
2022/07/03 08:28:07;;;;;;;3.40;1.00;;;20.80;63.20;;;;;;5096003;28;20383;-38
2022/07/03 08:30:33;;;;;;;2.50;0.75;;;20.80;63.00;;;;;;5095913;28;20460;-38
2022/07/03 08:33:00;;;;;;;1.58;0.80;;;20.90;63.00;;;;;;5095727;28;20437;-41
2022/07/03 08:35:26;;;;;;;1.63;0.82;;;20.90;62.90;;;;;;5095923;28;20027;-38
2022/07/03 08:37:51;;;;;;;2.60;0.88;;;21.00;63.10;;;;;;5095846;28;20494;-40
2022/07/03 08:40:19;;;;;;;1.70;0.70;;;21.00;63.00;;;;;;5095909;28;20016;-39
2022/07/03 08:42:52;;;;;;;1.90;0.95;;;21.10;62.90;;;;;;5095626;28;20076;-39
2022/07/03 08:45:20;;;;;;;1.67;0.73;;;21.10;62.90;;;;;;5095623;28;20028;-39
2022/07/03 08:47:47;;;;;;;2.53;0.98;;;21.20;63.00;;;;;;5095997;28;20068;-40
2022/07/03 08:50:14;;;;;;;4.65;0.90;;;21.20;62.90;;;;;;5095665;28;20165;-40
2022/07/03 08:52:41;;;;;;;2.53;0.90;;;21.30;62.80;;;;;;5095653;28;20137;-41
2022/07/03 08:55:08;;;;;;;2.90;0.70;;;21.30;62.70;;;;;;5095286;28;20032;-40
2022/07/03 08:57:40;;;;;;;4.25;0.90;;;21.30;62.80;;;;;;5095734;28;20452;-42
2022/07/03 09:00:08;;;;;;;2.03;0.87;;;21.40;62.70;;;;;;5095335;28;20103;-41
2022/07/03 09:02:34;;;;;;;1.80;0.80;;;21.50;62.60;;;;;;5095721;28;20016;-41
2022/07/03 09:05:04;;;;;;;0.98;0.70;;;21.50;62.10;;;;;;5095072;28;20022;-40
2022/07/03 09:07:34;;;;;;;4.18;1.02;;;21.60;61.70;;;;;;5095255;28;20024;-40
2022/07/03 09:10:01;;;;;;;1.33;0.70;;;21.60;61.30;;;;;;5095300;28;20099;-40
2022/07/03 09:12:31;;;;;;;1.27;0.80;;;21.70;60.90;;;;;;5095350;28;20094;-40
2022/07/03 09:14:57;;;;;;;1.45;0.73;;;21.80;60.20;;;;;;5095270;28;20032;-39
2022/07/03 09:17:23;;;;;;;0.60;0.60;;;21.80;60.00;;;;;;5095350;28;20108;-40
2022/07/03 09:19:49;;;;;;;2.78;0.80;;;21.90;59.50;;;;;;5095034;28;20056;-40
2022/07/03 09:22:28;;;;;;;0.98;0.50;;;21.90;59.10;;;;;;5095271;28;20325;-51
2022/07/03 09:25:08;;;;;;;1.25;0.60;;;22.00;58.80;;;;;;5095415;28;20027;-41
2022/07/03 09:27:38;;;;;;;1.33;0.50;;;22.00;58.70;;;;;;5095137;28;20020;-46
2022/07/03 09:30:06;;;;;;;1.15;0.77;;;22.00;58.70;;;;;;5094822;28;20023;-37
2022/07/03 09:32:52;;;;;;;2.00;0.80;;;22.10;58.50;;;;;;5095158;28;20029;-40
2022/07/03 09:35:21;;;;;;;1.85;0.70;;;22.10;58.60;;;;;;5094452;28;20044;-40
2022/07/03 09:38:02;;;;;;;1.73;0.63;;;22.20;58.70;;;;;;5094839;28;20031;-41
2022/07/03 09:40:47;;;;;;;1.92;0.70;;;22.20;58.80;;;;;;5094719;28;20487;-41
2022/07/03 09:43:12;;;;;;;2.55;1.00;;;22.30;59.00;;;;;;5094820;28;20146;-41
2022/07/03 09:45:50;;;;;;;1.75;0.85;;;22.30;59.10;;;;;;5094524;28;20135;-41
2022/07/03 09:48:30;;;;;;;0.75;0.60;;;22.40;59.10;;;;;;5094588;28;20024;-40
2022/07/03 09:51:19;;;;;;;0.60;0.47;;;22.50;59.00;;;;;;5094477;28;20016;-41
2022/07/03 09:53:52;;;;;;;2.13;0.73;;;22.70;58.80;;;;;;5094470;28;20069;-41
2022/07/03 09:56:19;;;;;;;2.20;0.70;;;22.80;58.90;;;;;;5094595;28;20107;-43
2022/07/03 09:59:01;;;;;;;1.33;0.80;;;22.80;59.00;;;;;;5094255;28;20020;-40
2022/07/03 10:01:27;;;;;;;0.98;0.65;;;23.00;59.20;;;;;;5094567;28;20028;-40
2022/07/03 10:03:55;;;;;;;1.55;0.73;;;22.90;59.00;;;;;;5094119;28;20020;-41
2022/07/03 10:06:20;;;;;;;0.85;0.77;;;23.00;59.10;;;;;;5094333;28;20024;-40
2022/07/03 10:08:47;;;;;;;2.53;0.65;;;22.90;59.10;;;;;;5094125;28;20387;-41
2022/07/03 10:11:13;;;;;;;1.77;0.80;;;22.80;59.20;;;;;;5093783;28;20035;-41
2022/07/03 10:13:40;;;;;;;3.45;1.10;;;22.80;59.40;;;;;;5093855;28;20028;-47
2022/07/03 10:16:06;;;;;;;0.80;0.80;;;22.80;59.60;;;;;;5093876;28;20035;-38
2022/07/03 10:18:39;;;;;;;2.50;0.80;;;22.80;59.70;;;;;;5093953;28;20081;-40
2022/07/03 10:21:06;;;;;;;1.65;0.60;;;22.70;59.40;;;;;;5094060;28;20023;-39
2022/07/03 10:23:32;;;;;;;2.35;0.80;;;22.70;59.30;;;;;;5093874;28;20020;-40
2022/07/03 10:25:58;;;;;;;2.63;0.75;;;22.70;59.20;;;;;;5093747;28;20016;-54
2022/07/03 10:28:24;;;;;;;1.52;0.90;;;22.70;59.00;;;;;;5093837;28;20472;-40
2022/07/03 10:30:50;;;;;;;1.33;0.82;;;22.70;58.90;;;;;;5093671;28;20047;-38
2022/07/03 10:33:17;;;;;;;2.42;0.85;;;22.70;59.00;;;;;;5093515;28;20020;-40
2022/07/03 10:35:48;;;;;;;3.35;0.80;;;22.80;59.20;;;;;;5093779;28;20059;-39
2022/07/03 10:38:30;;;;;;;1.13;0.80;;;22.90;58.90;;;;;;5093840;28;20042;-50
2022/07/03 10:46:59;;;;;;;1.80;0.80;;;23.10;58.00;;;;;;5093371;28;20035;-39
2022/07/03 10:49:25;;;;;;;1.20;0.55;;;23.10;58.10;;;;;;5093397;28;20032;-40
2022/07/03 10:51:56;;;;;;;1.50;0.75;;;23.30;58.00;;;;;;5093500;28;20016;-40
2022/07/03 10:54:26;;;;;;;3.38;0.90;;;23.40;57.70;;;;;;5093276;28;20031;-40
2022/07/03 10:57:00;;;;;;;1.73;0.80;;;23.40;57.70;;;;;;5093759;28;20074;-40
2022/07/03 10:59:35;;;;;;;2.78;0.70;;;23.50;57.70;;;;;;5092559;28;20106;-40
2022/07/03 11:02:34;;;;;;;1.98;0.88;;;23.50;57.60;;;;;;5093028;28;20024;-38
2022/07/03 11:04:59;;;;;;;3.15;0.80;;;23.50;57.70;;;;;;5091751;28;20028;-42
2022/07/03 11:07:26;;;;;;;0.52;0.52;;;23.50;57.60;;;;;;5092955;28;20034;-39
2022/07/03 11:10:10;;;;;;;2.33;0.90;;;23.60;57.50;;;;;;5093314;28;20104;-40
2022/07/03 11:13:10;;;;;;;3.10;1.00;;;23.60;57.30;;;;;;5093388;28;20028;-39
2022/07/03 11:15:52;;;;;;;1.27;1.00;;;23.50;57.20;;;;;;5093247;28;20032;-40
2022/07/03 11:18:25;;;;;;;2.05;0.98;;;23.60;57.10;;;;;;5093088;28;20073;-40
2022/07/03 11:21:10;;;;;;;0.88;0.60;;;23.60;56.60;;;;;;5092863;28;20095;-40
2022/07/03 11:23:55;;;;;;;1.73;0.60;;;23.60;56.50;;;;;;5088717;28;20024;-39
2022/07/03 11:26:22;;;;;;;1.55;0.60;;;23.60;55.80;;;;;;5092794;28;20020;-39
2022/07/03 11:28:50;;;;;;;1.65;0.63;;;23.60;55.50;;;;;;5093090;28;20016;-37
2022/07/03 11:31:17;;;;;;;1.10;0.50;;;23.60;55.40;;;;;;5092764;28;20125;-38
2022/07/03 11:33:42;;;;;;;0.80;0.60;;;23.60;55.70;;;;;;5091715;28;20023;-38
2022/07/03 11:36:17;;;;;;;1.65;0.70;;;23.50;55.70;;;;;;5093109;28;20028;-38
2022/07/03 11:38:44;;;;;;;1.27;0.50;;;23.50;55.60;;;;;;5091691;28;20048;-37
2022/07/03 11:41:11;;;;;;;1.02;0.60;;;23.40;55.80;;;;;;5092709;28;20036;-37
2022/07/03 11:43:45;;;;;;;1.25;0.60;;;23.40;56.00;;;;;;5092818;28;20406;-38
2022/07/03 11:46:16;;;;;;;1.70;1.10;;;23.30;56.30;;;;;;5092780;28;20112;-38
2022/07/03 11:48:42;;;;;;;2.42;1.02;;;23.30;56.60;;;;;;5093089;28;20020;-38
2022/07/03 11:51:07;;;;;;;1.23;0.95;;;23.40;56.70;;;;;;5092743;28;20020;-38
2022/07/03 11:53:35;;;;;;;1.08;0.70;;;23.40;56.70;;;;;;5092973;28;20020;-38
2022/07/03 11:56:12;;;;;;;1.17;0.75;;;23.50;56.20;;;;;;5093043;28;20070;-36
2022/07/03 11:58:46;;;;;;;1.15;0.45;;;23.50;55.70;;;;;;5093026;28;20077;-38
2022/07/03 12:01:24;;;;;;;0.88;0.40;;;23.50;55.00;;;;;;5092902;28;20027;-38
2022/07/03 12:03:51;;;;;;;0.60;0.40;;;23.60;54.50;;;;;;5093105;28;20039;-38
2022/07/03 12:06:17;;;;;;;1.40;0.70;;;23.60;53.90;;;;;;5092579;28;20026;-38
2022/07/03 12:08:46;;;;;;;0.75;0.65;;;23.60;53.70;;;;;;5092724;28;20081;-39
2022/07/03 12:11:13;;;;;;;1.58;0.60;;;23.70;53.90;;;;;;5096306;28;20017;-38
2022/07/03 12:13:39;;;;;;;1.27;0.57;;;23.80;54.00;;;;;;5096327;28;20099;-38
2022/07/03 12:16:13;;;;;;;0.80;0.65;;;23.90;53.90;;;;;;5095203;28;20048;-37
2022/07/03 12:18:48;;;;;;;1.20;0.57;;;24.00;53.70;;;;;;5096636;28;20332;-38
2022/07/03 12:21:14;;;;;;;3.80;0.93;;;24.10;53.20;;;;;;5096058;28;20020;-37
2022/07/03 12:23:42;;;;;;;2.15;0.70;;;24.20;53.40;;;;;;5096414;28;20036;-37
2022/07/03 12:26:08;;;;;;;1.00;0.55;;;24.30;53.30;;;;;;5096094;28;20016;-37
2022/07/03 12:28:34;;;;;;;0.52;0.52;;;24.40;52.60;;;;;;5096286;28;20031;-38
2022/07/03 12:31:00;;;;;;;1.80;0.65;;;24.50;52.30;;;;;;5095973;28;20016;-36
2022/07/03 12:33:25;;;;;;;2.50;0.60;;;24.50;52.20;;;;;;5096186;28;20421;-36
2022/07/03 12:36:05;;;;;;;2.65;0.50;;;24.50;51.80;;;;;;5096149;28;20430;-38
2022/07/03 12:38:31;;;;;;;1.30;0.90;;;24.50;51.30;;;;;;5096227;28;20382;-46
2022/07/03 12:41:09;;;;;;;1.27;0.70;;;24.50;51.60;;;;;;5095644;28;20032;-38
2022/07/03 12:43:42;;;;;;;1.40;0.60;;;24.50;51.50;;;;;;5096103;28;20082;-38
2022/07/03 12:46:22;;;;;;;0.90;0.50;;;24.40;51.20;;;;;;5095640;28;20392;-37
2022/07/03 12:48:56;;;;;;;1.65;0.50;;;24.50;51.20;;;;;;5095682;28;20020;-37
2022/07/03 12:51:40;;;;;;;1.67;0.68;;;24.70;51.40;;;;;;5095661;28;20028;-37
2022/07/03 12:54:30;;;;;;;2.55;0.77;;;24.80;51.10;;;;;;5095449;28;20028;-37
2022/07/03 13:00:16;;;;;;;1.35;0.65;;;25.10;51.00;;;;;;5095862;28;20097;-37
2022/07/03 13:02:42;;;;;;;0.73;0.65;;;25.00;50.40;;;;;;5095703;28;20052;-42
2022/07/03 13:05:22;;;;;;;0.85;0.60;;;24.90;50.50;;;;;;5095279;28;20445;-37
2022/07/03 13:07:53;;;;;;;1.75;0.63;;;24.90;50.40;;;;;;5095642;28;20467;-37
2022/07/03 13:10:21;;;;;;;0.70;0.60;;;24.80;50.40;;;;;;5095309;28;20027;-38
2022/07/03 13:12:48;;;;;;;2.00;0.70;;;24.90;50.40;;;;;;5095862;28;20034;-37
2022/07/03 13:15:14;;;;;;;2.03;0.75;;;24.80;50.20;;;;;;5095179;28;20107;-37